RJFU(METAR)
08/22 21:00
METAR RJFU 221200Z 20008KT 9999 FEW010 SCT020 BKN110 28/25 Q1009 RMK
1CU010 3CU020 5AC110 A2981=
戻る
トップページへ戻る
IMOC Co,.Ltd.